createdAt,value
2018-09-20T00:07:22.866Z,5.43
2018-09-20T00:09:57.220Z,6.30
2018-09-20T00:12:25.552Z,5.80
2018-09-20T00:14:54.321Z,6.70
2018-09-20T00:17:22.588Z,6.30
2018-09-20T00:19:51.439Z,5.55
2018-09-20T00:22:19.974Z,5.80
2018-09-20T00:24:48.436Z,6.57
2018-09-20T00:27:16.570Z,5.90
2018-09-20T00:29:44.998Z,6.30
2018-09-20T00:32:13.263Z,6.30
2018-09-20T00:34:41.407Z,6.43
2018-09-20T00:37:09.629Z,6.17
2018-09-20T00:39:37.801Z,5.67
2018-09-20T00:42:06.024Z,5.97
2018-09-20T00:44:34.697Z,5.80
2018-09-20T00:47:03.349Z,6.00
2018-09-20T00:49:31.844Z,6.00
2018-09-20T00:52:00.117Z,6.40
2018-09-20T00:54:28.623Z,5.75
2018-09-20T00:56:56.840Z,6.60
2018-09-20T00:59:25.038Z,5.92
2018-09-20T01:01:53.327Z,5.90
2018-09-20T01:04:23.081Z,6.60
2018-09-20T01:06:52.079Z,6.47
2018-09-20T01:09:20.383Z,5.70
2018-09-20T01:11:48.911Z,5.87
2018-09-20T01:14:17.248Z,5.87
2018-09-20T01:16:45.364Z,6.13
2018-09-20T01:19:13.516Z,5.97
2018-09-20T01:21:41.695Z,6.03
2018-09-20T01:24:09.816Z,6.53
2018-09-20T01:26:37.954Z,6.47
2018-09-20T01:29:06.187Z,6.50
2018-09-20T01:31:34.536Z,6.53
2018-09-20T01:34:02.754Z,6.25
2018-09-20T01:36:30.899Z,6.10
2018-09-20T01:39:00.043Z,5.80
2018-09-20T01:41:28.233Z,6.20
2018-09-20T01:43:56.435Z,5.95
2018-09-20T01:46:24.630Z,6.70
2018-09-20T01:48:52.912Z,6.58
2018-09-20T01:51:21.468Z,5.80
2018-09-20T01:53:49.598Z,6.70
2018-09-20T01:56:17.761Z,6.00
2018-09-20T01:58:46.692Z,5.77
2018-09-20T02:01:14.846Z,6.13
2018-09-20T02:03:43.744Z,5.87
2018-09-20T02:06:12.735Z,6.78
2018-09-20T02:08:42.960Z,6.67
2018-09-20T02:11:11.719Z,6.20
2018-09-20T02:13:39.881Z,6.67
2018-09-20T02:16:08.734Z,6.13
2018-09-20T02:18:36.908Z,6.60
2018-09-20T02:21:05.232Z,6.00
2018-09-20T02:23:34.327Z,6.53
2018-09-20T02:26:02.463Z,6.00
2018-09-20T02:28:30.631Z,6.47
2018-09-20T02:31:00.930Z,6.60
2018-09-20T02:33:29.350Z,6.10
2018-09-20T02:35:57.723Z,5.80
2018-09-20T02:38:25.970Z,6.75
2018-09-20T02:40:54.164Z,6.15
2018-09-20T02:43:23.667Z,5.78
2018-09-20T02:45:51.833Z,9.30
2018-09-20T02:48:19.984Z,6.93
2018-09-20T02:50:48.167Z,6.27
2018-09-20T02:53:16.384Z,7.07
2018-09-20T02:55:44.640Z,6.37
2018-09-20T02:58:14.552Z,6.70
2018-09-20T03:00:42.723Z,6.80
2018-09-20T03:03:11.811Z,6.77
2018-09-20T03:05:39.987Z,7.60
2018-09-20T03:08:08.168Z,6.63
2018-09-20T03:10:36.336Z,6.57
2018-09-20T03:13:04.544Z,6.30
2018-09-20T03:15:34.384Z,7.87
2018-09-20T03:18:02.948Z,7.80
2018-09-20T03:20:31.139Z,8.27
2018-09-20T03:22:59.872Z,8.10
2018-09-20T03:25:28.070Z,8.17
2018-09-20T03:27:58.511Z,7.67
2018-09-20T03:30:26.653Z,7.53
2018-09-20T03:32:54.845Z,7.67
2018-09-20T03:35:23.186Z,8.13
2018-09-20T03:37:51.606Z,7.50
2018-09-20T03:40:19.828Z,7.50
2018-09-20T03:42:47.995Z,7.90
2018-09-20T03:45:16.147Z,8.57
2018-09-20T03:47:44.417Z,7.90
2018-09-20T03:50:12.643Z,8.53
2018-09-20T03:52:40.845Z,7.37
2018-09-20T03:55:09.339Z,8.28
2018-09-20T03:57:37.604Z,9.37
2018-09-20T04:00:05.863Z,9.20
2018-09-20T04:02:34.299Z,9.50
2018-09-20T04:05:02.505Z,8.23
2018-09-20T04:07:30.677Z,8.83
2018-09-20T04:09:58.902Z,9.63
2018-09-20T04:12:27.175Z,9.27
2018-09-20T04:14:55.366Z,8.53
2018-09-20T04:17:23.640Z,9.23
2018-09-20T04:19:51.803Z,9.20
2018-09-20T04:22:20.058Z,8.13
2018-09-20T04:24:49.270Z,9.25
2018-09-20T04:27:17.615Z,9.87
2018-09-20T04:29:45.879Z,8.53
2018-09-20T04:32:16.020Z,8.73
2018-09-20T04:34:44.803Z,10.03
2018-09-20T04:37:12.983Z,9.40
2018-09-20T04:39:41.282Z,9.10
2018-09-20T04:42:10.287Z,9.60
2018-09-20T04:44:38.786Z,9.40
2018-09-20T04:47:08.344Z,10.07
2018-09-20T04:49:36.845Z,9.70
2018-09-20T04:52:05.236Z,11.17
2018-09-20T04:54:33.338Z,12.27
2018-09-20T04:57:01.526Z,12.13
2018-09-20T04:59:29.594Z,12.80
2018-09-20T05:01:57.689Z,11.67
2018-09-20T05:04:28.150Z,11.28
2018-09-20T05:06:56.311Z,13.70
2018-09-20T05:09:24.573Z,11.73
2018-09-20T05:11:56.838Z,12.55
2018-09-20T05:14:25.017Z,11.67
2018-09-20T05:16:53.208Z,11.93
2018-09-20T05:19:21.372Z,11.50
2018-09-20T05:21:49.538Z,12.00
2018-09-20T05:24:18.042Z,11.70
2018-09-20T05:26:46.252Z,11.63
2018-09-20T05:29:15.218Z,12.83
2018-09-20T05:31:43.433Z,13.07
2018-09-20T05:34:13.112Z,11.97
2018-09-20T05:36:41.297Z,11.70
2018-09-20T05:39:10.415Z,11.03
2018-09-20T05:41:38.749Z,11.40
2018-09-20T05:44:07.941Z,11.50
2018-09-20T05:46:36.317Z,10.53
2018-09-20T05:49:04.972Z,12.17
2018-09-20T05:51:33.211Z,12.27
2018-09-20T05:54:01.458Z,11.90
2018-09-20T05:56:29.705Z,11.43
2018-09-20T05:58:58.039Z,11.00
2018-09-20T06:01:28.157Z,12.23
2018-09-20T06:03:56.495Z,12.05
2018-09-20T06:06:26.328Z,11.93
2018-09-20T06:08:54.572Z,11.03
2018-09-20T06:11:22.878Z,12.30
2018-09-20T06:13:51.376Z,11.73
2018-09-20T06:16:19.857Z,12.30
2018-09-20T06:18:48.989Z,11.05
2018-09-20T06:21:17.383Z,11.60
2018-09-20T06:23:45.485Z,12.73
2018-09-20T06:26:13.625Z,11.93
2018-09-20T06:28:42.349Z,12.67
2018-09-20T06:31:10.434Z,12.23
2018-09-20T06:33:38.655Z,11.53
2018-09-20T06:36:07.271Z,12.60
2018-09-20T06:38:37.019Z,12.50
2018-09-20T06:41:05.367Z,12.90
2018-09-20T06:43:34.096Z,12.63
2018-09-20T06:46:02.244Z,12.90
2018-09-20T06:48:30.382Z,13.43
2018-09-20T06:51:00.179Z,12.03
2018-09-20T06:53:28.285Z,13.07
2018-09-20T06:55:57.706Z,12.80
2018-09-20T06:58:27.789Z,12.10
2018-09-20T07:00:55.940Z,11.88
2018-09-20T07:03:24.957Z,12.47
2018-09-20T07:05:55.647Z,12.10
2018-09-20T07:08:23.803Z,13.03
2018-09-20T07:10:51.952Z,13.35
2018-09-20T07:13:21.286Z,13.97
2018-09-20T07:15:49.620Z,13.85
2018-09-20T07:18:17.886Z,12.27
2018-09-20T07:20:46.055Z,13.70
2018-09-20T07:23:14.151Z,12.77
2018-09-20T07:25:43.723Z,14.33
2018-09-20T07:28:13.147Z,13.97
2018-09-20T07:30:42.837Z,13.47
2018-09-20T07:33:11.218Z,13.55
2018-09-20T07:35:39.428Z,13.10
2018-09-20T07:38:07.624Z,14.30
2018-09-20T07:40:35.795Z,15.23
2018-09-20T07:43:03.953Z,13.00
2018-09-20T07:45:32.207Z,13.33
2018-09-20T07:48:00.685Z,14.28
2018-09-20T07:50:29.938Z,11.90
2018-09-20T07:52:58.480Z,13.10
2018-09-20T07:55:26.800Z,10.97
2018-09-20T07:57:54.971Z,11.00
2018-09-20T08:00:23.871Z,10.95
2018-09-20T08:02:54.021Z,9.80
2018-09-20T08:05:22.111Z,10.30
2018-09-20T08:07:51.544Z,10.20
2018-09-20T08:10:20.208Z,9.60
2018-09-20T08:12:48.497Z,9.43
2018-09-20T08:15:17.284Z,9.03
2018-09-20T08:17:45.802Z,8.93
2018-09-20T08:20:14.673Z,8.90
2018-09-20T08:22:43.412Z,8.37
2018-09-20T08:25:12.944Z,8.37
2018-09-20T08:27:41.151Z,7.83
2018-09-20T08:30:09.302Z,8.00
2018-09-20T08:32:39.027Z,8.53
2018-09-20T08:35:07.184Z,7.80
2018-09-20T08:37:35.565Z,23.60
2018-09-20T08:40:03.637Z,8.70
2018-09-20T08:42:33.165Z,6.83
2018-09-20T08:45:01.341Z,7.72
2018-09-20T08:47:30.462Z,7.10
2018-09-20T08:49:58.586Z,7.73
2018-09-20T08:52:26.766Z,6.60
2018-09-20T08:54:55.028Z,7.40
2018-09-20T08:57:23.942Z,7.60
2018-09-20T08:59:52.166Z,6.97
2018-09-20T09:02:20.307Z,6.90
2018-09-20T09:04:48.536Z,6.87
2018-09-20T09:07:17.612Z,7.43
2018-09-20T09:09:46.863Z,7.13
2018-09-20T09:12:15.088Z,6.97
2018-09-20T09:14:44.764Z,6.65
2018-09-20T09:17:13.676Z,6.62
2018-09-20T09:19:42.554Z,7.00
2018-09-20T09:22:12.387Z,7.27
2018-09-20T09:24:40.639Z,6.43
2018-09-20T09:27:10.343Z,6.37
2018-09-20T09:29:38.725Z,6.20
2018-09-20T09:32:07.000Z,6.47
2018-09-20T09:34:35.912Z,5.70
2018-09-20T09:37:04.109Z,6.40
2018-09-20T09:39:32.644Z,6.73
2018-09-20T09:42:01.125Z,6.70
2018-09-20T09:44:29.300Z,6.23
2018-09-20T09:46:57.627Z,5.92
2018-09-20T09:49:25.760Z,6.12
2018-09-20T09:51:54.477Z,6.00
2018-09-20T09:54:23.088Z,6.50
2018-09-20T09:56:51.216Z,6.53
2018-09-20T09:59:19.745Z,6.47
2018-09-20T10:01:48.080Z,5.70
2018-09-20T10:04:16.588Z,6.20
2018-09-20T10:06:44.736Z,5.80
2018-09-20T10:09:16.008Z,6.12
2018-09-20T10:11:44.288Z,6.47
2018-09-20T10:14:12.484Z,5.40
2018-09-20T10:16:40.737Z,5.83
2018-09-20T10:19:09.036Z,6.07
2018-09-20T10:21:37.356Z,6.13
2018-09-20T10:24:09.188Z,5.80
2018-09-20T10:26:37.269Z,6.33
2018-09-20T10:29:06.630Z,5.87
2018-09-20T10:31:34.867Z,5.33
2018-09-20T10:34:02.977Z,5.20
2018-09-20T10:36:31.008Z,6.08
2018-09-20T10:38:59.240Z,5.33
2018-09-20T10:41:27.505Z,6.17
2018-09-20T10:43:55.824Z,5.37
2018-09-20T10:46:24.174Z,5.87
2018-09-20T10:48:52.835Z,6.17
2018-09-20T10:51:21.495Z,5.40
2018-09-20T10:53:49.569Z,5.62
2018-09-20T10:56:17.646Z,5.70
2018-09-20T10:58:46.070Z,5.13
2018-09-20T11:01:15.467Z,5.13
2018-09-20T11:03:43.937Z,5.00
2018-09-20T11:06:12.097Z,4.83
2018-09-20T11:08:40.192Z,5.50
2018-09-20T11:11:08.399Z,5.97
2018-09-20T11:13:37.163Z,4.93
2018-09-20T11:16:07.220Z,5.40
2018-09-20T11:18:35.695Z,5.60
2018-09-20T11:21:04.544Z,4.57
2018-09-20T11:23:34.079Z,4.40
2018-09-20T11:26:02.605Z,4.93
2018-09-20T11:28:30.731Z,4.70
2018-09-20T11:30:59.168Z,4.67
2018-09-20T11:33:27.495Z,4.47
2018-09-20T11:35:55.639Z,5.13
2018-09-20T11:38:23.807Z,4.47
2018-09-20T11:40:52.260Z,4.72
2018-09-20T11:43:21.374Z,4.10
2018-09-20T11:45:49.787Z,4.20
2018-09-20T11:48:18.271Z,3.90
2018-09-20T11:50:46.447Z,4.30
2018-09-20T11:53:14.797Z,4.27
2018-09-20T11:55:45.129Z,4.27
2018-09-20T11:58:14.266Z,4.37
2018-09-20T12:00:42.834Z,4.53
2018-09-20T12:03:11.206Z,4.50
2018-09-20T12:05:39.990Z,5.07
2018-09-20T12:08:08.169Z,4.90
2018-09-20T12:10:36.337Z,4.63
2018-09-20T12:13:04.469Z,4.77
2018-09-20T12:15:32.733Z,4.77
2018-09-20T12:18:01.613Z,4.87
2018-09-20T12:20:30.989Z,4.95
2018-09-20T12:23:01.391Z,4.87
2018-09-20T12:25:29.487Z,4.75
2018-09-20T12:27:58.072Z,4.30
2018-09-20T12:30:26.754Z,4.92
2018-09-20T12:32:55.016Z,4.20
2018-09-20T12:35:23.196Z,4.97
2018-09-20T12:37:51.300Z,4.55
2018-09-20T12:40:19.447Z,4.55
2018-09-20T12:42:47.684Z,5.00
2018-09-20T12:45:16.162Z,4.80
2018-09-20T12:47:44.614Z,4.70
2018-09-20T12:50:12.939Z,4.50
2018-09-20T12:52:41.729Z,5.37
2018-09-20T12:55:09.861Z,5.03
2018-09-20T12:57:38.746Z,4.87
2018-09-20T13:00:08.876Z,4.40
2018-09-20T13:02:37.021Z,4.43
2018-09-20T13:05:05.579Z,5.03
2018-09-20T13:07:33.825Z,4.77
2018-09-20T13:10:02.576Z,4.13
2018-09-20T13:12:30.766Z,4.77
2018-09-20T13:14:58.980Z,3.90
2018-09-20T13:17:27.315Z,4.50
2018-09-20T13:19:55.495Z,4.80
2018-09-20T13:22:23.660Z,4.75
2018-09-20T13:24:52.109Z,4.50
2018-09-20T13:27:20.270Z,4.06
2018-09-20T13:29:48.564Z,4.07
2018-09-20T13:32:17.960Z,3.90
2018-09-20T13:34:46.499Z,4.00
2018-09-20T13:37:14.738Z,3.67
2018-09-20T13:39:43.084Z,3.70
2018-09-20T13:42:31.243Z,3.30
2018-09-20T13:45:17.338Z,3.75
2018-09-20T13:47:48.743Z,4.30
2018-09-20T13:50:17.215Z,3.70
2018-09-20T13:52:45.386Z,4.05
2018-09-20T13:55:13.591Z,3.90
2018-09-20T13:57:42.001Z,4.30
2018-09-20T14:00:10.587Z,4.15
2018-09-20T14:02:39.099Z,3.90
2018-09-20T14:05:07.347Z,3.58
2018-09-20T14:07:35.729Z,3.65
2018-09-20T14:10:03.851Z,3.72
2018-09-20T14:12:32.561Z,3.12
2018-09-20T14:15:05.593Z,3.65
2018-09-20T14:17:44.726Z,3.50
2018-09-20T14:20:14.769Z,3.75
2018-09-20T14:22:43.471Z,3.47
2018-09-20T14:25:11.987Z,3.80
2018-09-20T14:27:40.562Z,3.33
2018-09-20T14:30:08.948Z,4.07
2018-09-20T14:32:37.096Z,3.37
2018-09-20T14:35:05.461Z,3.77
2018-09-20T14:37:33.681Z,3.57
2018-09-20T14:40:02.214Z,3.62
2018-09-20T14:42:30.634Z,3.03
2018-09-20T14:44:58.909Z,4.00
2018-09-20T14:47:27.210Z,3.67
2018-09-20T14:49:55.502Z,3.98
2018-09-20T14:52:24.598Z,3.53
2018-09-20T14:54:52.877Z,3.35
2018-09-20T14:57:21.735Z,3.77
2018-09-20T14:59:49.952Z,3.43
2018-09-20T15:02:18.117Z,3.30
2018-09-20T15:04:46.296Z,3.42
2018-09-20T15:07:15.532Z,3.80
2018-09-20T15:09:43.767Z,3.53
2018-09-20T15:12:12.405Z,3.70
2018-09-20T15:14:47.663Z,4.40
2018-09-20T15:17:16.230Z,3.53
2018-09-20T15:19:45.259Z,4.63
2018-09-20T15:22:14.413Z,3.77
2018-09-20T15:24:43.523Z,3.43
2018-09-20T15:27:12.094Z,4.30
2018-09-20T15:29:40.422Z,3.47
2018-09-20T15:32:08.806Z,3.60
2018-09-20T15:34:37.592Z,4.10
2018-09-20T15:37:05.796Z,3.93
2018-09-20T15:39:34.080Z,4.07
2018-09-20T15:42:02.396Z,4.20
2018-09-20T15:44:30.563Z,3.70
2018-09-20T15:46:58.695Z,3.73
2018-09-20T15:49:27.204Z,4.33
2018-09-20T15:51:55.391Z,4.40
2018-09-20T15:54:25.259Z,3.50
2018-09-20T15:56:53.551Z,3.30
2018-09-20T15:59:21.762Z,3.75
2018-09-20T16:01:50.004Z,4.15
2018-09-20T16:04:18.372Z,3.90
2018-09-20T16:06:46.991Z,3.77
2018-09-20T16:09:15.417Z,4.90
2018-09-20T16:11:43.536Z,4.00
2018-09-20T16:14:11.784Z,3.10
2018-09-20T16:16:40.394Z,3.87
2018-09-20T16:19:08.972Z,4.27
2018-09-20T16:21:37.186Z,3.73
2018-09-20T16:24:06.246Z,4.33
2018-09-20T16:26:34.603Z,4.20
2018-09-20T16:30:10.922Z,4.00
2018-09-20T16:34:52.648Z,3.47
2018-09-20T16:37:28.914Z,4.03
2018-09-20T16:39:57.937Z,3.83
2018-09-20T16:42:26.955Z,4.20
2018-09-20T16:44:55.114Z,4.60
2018-09-20T16:47:24.107Z,5.00
2018-09-20T16:49:52.289Z,3.90
2018-09-20T16:52:20.533Z,11.63
2018-09-20T16:54:49.543Z,5.20
2018-09-20T16:57:19.111Z,4.63
2018-09-20T16:59:47.514Z,4.03
2018-09-20T17:02:15.902Z,5.53
2018-09-20T17:04:45.004Z,5.43
2018-09-20T17:07:14.700Z,5.07
2018-09-20T17:09:42.852Z,13.70
2018-09-20T17:12:12.075Z,6.77
2018-09-20T17:14:40.349Z,10.80
2018-09-20T17:17:08.804Z,6.43
2018-09-20T17:19:38.564Z,7.77
2018-09-20T17:22:08.062Z,5.80
2018-09-20T17:24:36.248Z,4.93
2018-09-20T17:27:05.966Z,4.53
2018-09-20T17:29:34.199Z,4.60
2018-09-20T17:32:02.558Z,5.20
2018-09-20T17:34:31.291Z,5.50
2018-09-20T17:37:00.500Z,6.83
2018-09-20T17:39:29.766Z,5.33
2018-09-20T17:41:58.650Z,5.85
2018-09-20T17:44:27.471Z,6.53
2018-09-20T17:46:57.499Z,4.90
2018-09-20T17:49:26.963Z,5.42
2018-09-20T17:51:55.297Z,6.00
2018-09-20T17:54:24.415Z,6.42
2018-09-20T17:56:53.150Z,5.42
2018-09-20T17:59:22.143Z,6.17
2018-09-20T18:01:50.568Z,6.80
2018-09-20T18:04:19.037Z,6.80
2018-09-20T18:06:47.313Z,6.40
2018-09-20T18:09:17.532Z,5.96
2018-09-20T18:11:46.051Z,6.33
2018-09-20T18:14:14.227Z,6.33
2018-09-20T18:16:42.640Z,5.90
2018-09-20T18:19:10.875Z,7.80
2018-09-20T18:21:39.103Z,6.90
2018-09-20T18:24:08.350Z,6.60
2018-09-20T18:26:36.632Z,8.20
2018-09-20T18:29:05.676Z,7.70
2018-09-20T18:31:38.297Z,7.60
2018-09-20T18:34:06.932Z,7.63
2018-09-20T18:36:36.107Z,7.03
2018-09-20T18:39:13.195Z,7.08
2018-09-20T18:41:42.788Z,7.53
2018-09-20T18:44:12.287Z,8.60
2018-09-20T18:46:40.484Z,8.50
2018-09-20T18:49:08.844Z,8.63
2018-09-20T18:51:37.407Z,8.17
2018-09-20T18:54:05.617Z,8.63
2018-09-20T18:56:33.769Z,9.45
2018-09-20T18:59:03.194Z,7.40
2018-09-20T19:01:31.332Z,9.40
2018-09-20T19:03:59.491Z,7.03
2018-09-20T19:06:27.871Z,7.35
2018-09-20T19:08:56.508Z,6.78
2018-09-20T19:11:25.038Z,7.58
2018-09-20T19:13:53.308Z,6.53
2018-09-20T19:16:21.540Z,5.97
2018-09-20T19:18:49.683Z,6.50
2018-09-20T19:21:18.423Z,5.83
2018-09-20T19:23:46.640Z,5.73
2018-09-20T19:26:14.982Z,6.80
2018-09-20T19:28:44.918Z,7.17
2018-09-20T19:31:13.307Z,5.80
2018-09-20T19:33:42.126Z,5.80
2018-09-20T19:36:12.167Z,6.97
2018-09-20T19:38:40.351Z,7.60
2018-09-20T19:41:08.523Z,7.40
2018-09-20T19:43:40.631Z,7.73
2018-09-20T19:46:08.806Z,6.60
2018-09-20T19:48:36.904Z,5.73
2018-09-20T19:51:06.391Z,5.20
2018-09-20T19:53:34.602Z,6.00
2018-09-20T19:56:02.961Z,5.15
2018-09-20T19:58:31.986Z,6.10
2018-09-20T20:01:00.763Z,5.65
2018-09-20T20:03:28.948Z,5.17
2018-09-20T20:05:57.215Z,4.73
2018-09-20T20:08:25.390Z,6.07
2018-09-20T20:10:53.927Z,8.80
2018-09-20T20:13:22.219Z,6.40
2018-09-20T20:15:50.955Z,6.27
2018-09-20T20:18:20.758Z,6.40
2018-09-20T20:20:49.111Z,5.77
2018-09-20T20:23:18.999Z,6.07
2018-09-20T20:25:47.215Z,6.00
2018-09-20T20:28:16.517Z,5.83
2018-09-20T20:30:45.763Z,6.13
2018-09-20T20:33:18.291Z,6.83
2018-09-20T20:35:46.867Z,7.00
2018-09-20T20:38:15.091Z,6.50
2018-09-20T20:40:44.556Z,6.33
2018-09-20T20:43:13.132Z,7.00
2018-09-20T20:45:43.636Z,6.70
2018-09-20T20:48:15.425Z,7.20
2018-09-20T20:50:44.054Z,6.60
2018-09-20T20:53:12.807Z,7.33
2018-09-20T20:55:40.967Z,6.33
2018-09-20T20:58:09.731Z,6.97
2018-09-20T21:00:37.996Z,7.13
2018-09-20T21:03:06.809Z,7.10
2018-09-20T21:05:34.951Z,6.42
2018-09-20T21:08:03.650Z,7.25
2018-09-20T21:10:31.861Z,7.50
2018-09-20T21:13:00.018Z,7.17
2018-09-20T21:15:28.876Z,6.30
2018-09-20T21:17:57.195Z,6.60
2018-09-20T21:20:25.391Z,6.03
2018-09-20T21:22:53.716Z,6.33
2018-09-20T21:25:22.061Z,6.67
2018-09-20T21:27:50.278Z,10.93
2018-09-20T21:30:18.471Z,6.90
2018-09-20T21:32:46.801Z,6.60
2018-09-20T21:35:14.974Z,6.60
2018-09-20T21:37:43.124Z,6.43
2018-09-20T21:40:11.247Z,6.00
2018-09-20T21:42:39.423Z,5.77
2018-09-20T21:45:08.611Z,6.63
2018-09-20T21:47:36.788Z,6.07
2018-09-20T21:50:04.986Z,6.97
2018-09-20T21:52:33.289Z,6.93
2018-09-20T21:55:01.611Z,7.30
2018-09-20T21:57:29.913Z,6.97
2018-09-20T21:59:58.185Z,6.30
2018-09-20T22:02:32.072Z,5.80
2018-09-20T22:05:00.227Z,6.30
2018-09-20T22:07:29.597Z,6.97
2018-09-20T22:09:57.787Z,5.80
2018-09-20T22:12:26.013Z,6.63
2018-09-20T22:14:54.739Z,6.00
2018-09-20T22:17:22.856Z,6.43
2018-09-20T22:19:51.047Z,6.93
2018-09-20T22:22:19.155Z,6.03
2018-09-20T22:24:47.505Z,6.10
2018-09-20T22:27:15.817Z,7.03
2018-09-20T22:29:44.110Z,7.30
2018-09-20T22:32:12.218Z,6.80
2018-09-20T22:34:42.471Z,5.90
2018-09-20T22:37:11.219Z,6.83
2018-09-20T22:39:39.363Z,6.43
2018-09-20T22:42:07.614Z,6.33
2018-09-20T22:44:35.784Z,6.57
2018-09-20T22:47:04.018Z,6.30
2018-09-20T22:49:32.946Z,6.27
2018-09-20T22:52:01.595Z,6.15
2018-09-20T22:54:30.077Z,6.40
2018-09-20T22:56:58.356Z,6.40
2018-09-20T22:59:27.202Z,6.40
2018-09-20T23:01:57.063Z,8.43
2018-09-20T23:04:26.638Z,6.53
2018-09-20T23:06:55.131Z,5.87
2018-09-20T23:09:24.336Z,7.83
2018-09-20T23:11:52.466Z,6.90
2018-09-20T23:14:20.584Z,6.83
2018-09-20T23:16:48.840Z,6.87
2018-09-20T23:19:20.964Z,6.70
2018-09-20T23:21:49.562Z,6.83
2018-09-20T23:24:17.769Z,6.60
2018-09-20T23:26:46.128Z,6.60
2018-09-20T23:29:16.040Z,6.73
2018-09-20T23:31:44.344Z,7.57
2018-09-20T23:34:12.440Z,7.00
2018-09-20T23:36:40.573Z,6.47
2018-09-20T23:39:11.098Z,7.23
2018-09-20T23:41:39.350Z,7.10
2018-09-20T23:44:08.000Z,7.33
2018-09-20T23:46:36.269Z,7.20
2018-09-20T23:49:04.541Z,7.87
2018-09-20T23:51:32.943Z,6.50
2018-09-20T23:54:01.591Z,6.42
2018-09-20T23:56:29.891Z,8.83
2018-09-20T23:58:58.298Z,7.40
